createdAt,value
2018-05-09T00:02:10.123Z,100910.94
2018-05-09T00:04:38.438Z,100908.63
2018-05-09T00:07:07.288Z,100909.47
2018-05-09T00:09:35.608Z,100902.02
2018-05-09T00:12:03.968Z,100902.56
2018-05-09T00:14:32.413Z,100902.06
2018-05-09T00:17:00.777Z,100901.14
2018-05-09T00:19:29.133Z,100896.66
2018-05-09T00:21:58.856Z,100906.27
2018-05-09T00:24:27.173Z,100902.92
2018-05-09T00:26:55.510Z,100905.69
2018-05-09T00:29:23.929Z,100897.09
2018-05-09T00:31:52.243Z,100888.88
2018-05-09T00:34:20.570Z,100894.70
2018-05-09T00:36:48.910Z,100889.42
2018-05-09T00:39:17.216Z,100891.35
2018-05-09T00:41:45.727Z,100891.27
2018-05-09T00:44:14.390Z,100880.16
2018-05-09T00:46:42.707Z,100884.64
2018-05-09T00:49:10.998Z,100884.06
2018-05-09T00:51:40.215Z,100885.14
2018-05-09T00:54:20.421Z,100879.86
2018-05-09T00:56:49.669Z,100879.86
2018-05-09T00:59:17.978Z,100881.09
2018-05-09T01:01:46.289Z,100881.75
2018-05-09T01:04:15.005Z,100878.00
2018-05-09T01:06:43.317Z,100880.55
2018-05-09T01:09:11.602Z,100881.20
2018-05-09T01:11:40.553Z,100874.19
2018-05-09T01:14:08.876Z,100872.66
2018-05-09T01:16:37.190Z,100869.09
2018-05-09T01:19:06.139Z,100867.97
2018-05-09T01:21:34.445Z,100867.64
2018-05-09T01:24:02.818Z,100865.34
2018-05-09T01:26:32.448Z,100868.81
2018-05-09T01:29:00.815Z,100869.09
2018-05-09T01:31:29.145Z,100863.84
2018-05-09T01:33:57.994Z,100865.84
2018-05-09T01:36:26.427Z,100867.69
2018-05-09T01:38:54.761Z,100866.41
2018-05-09T01:41:25.168Z,100864.87
2018-05-09T01:43:55.569Z,100866.02
2018-05-09T01:46:24.038Z,100864.12
2018-05-09T01:48:52.414Z,100869.02
2018-05-09T01:51:21.450Z,100863.62
2018-05-09T01:53:49.941Z,100868.61
2018-05-09T01:56:18.418Z,100856.55
2018-05-09T01:58:46.725Z,100858.33
2018-05-09T02:01:15.031Z,100856.92
2018-05-09T02:03:43.610Z,100855.64
2018-05-09T02:06:12.101Z,100859.97
2018-05-09T02:08:40.366Z,100858.16
2018-05-09T02:11:09.353Z,100857.50
2018-05-09T02:13:37.648Z,100859.61
2018-05-09T02:16:05.949Z,100862.79
2018-05-09T02:18:34.393Z,100862.52
2018-05-09T02:21:02.725Z,100862.37
2018-05-09T02:23:31.041Z,100850.27
2018-05-09T02:26:00.205Z,100859.96
2018-05-09T02:28:28.543Z,100855.16
2018-05-09T02:30:56.856Z,100854.66
2018-05-09T02:33:25.916Z,100846.14
2018-05-09T02:35:54.355Z,100841.17
2018-05-09T02:38:22.677Z,100847.91
2018-05-09T02:40:51.624Z,100842.59
2018-05-09T02:43:19.923Z,100846.16
2018-05-09T02:45:48.298Z,100845.48
2018-05-09T02:48:16.650Z,100849.05
2018-05-09T02:50:44.959Z,100851.53
2018-05-09T02:53:13.305Z,100851.69
2018-05-09T02:55:42.005Z,100854.00
2018-05-09T02:58:10.290Z,100848.27
2018-05-09T03:00:38.589Z,100854.15
2018-05-09T03:03:07.304Z,100864.42
2018-05-09T03:05:35.629Z,100861.10
2018-05-09T03:08:03.936Z,100859.83
2018-05-09T03:10:32.567Z,100858.16
2018-05-09T03:13:00.904Z,100857.31
2018-05-09T03:15:29.209Z,100857.06
2018-05-09T03:17:57.629Z,100861.36
2018-05-09T03:20:25.942Z,100857.31
2018-05-09T03:22:54.386Z,100853.87
2018-05-09T03:25:23.095Z,100857.41
2018-05-09T03:27:51.418Z,100856.56
2018-05-09T03:30:19.733Z,100855.89
2018-05-09T03:32:48.878Z,100858.83
2018-05-09T03:35:17.168Z,100857.13
2018-05-09T03:37:45.645Z,100856.14
2018-05-09T03:40:15.722Z,100856.97
2018-05-09T03:42:44.036Z,100853.02
2018-05-09T03:45:12.357Z,100851.32
2018-05-09T03:47:41.108Z,100860.02
2018-05-09T03:50:09.408Z,100863.65
2018-05-09T03:52:37.737Z,100854.00
2018-05-09T03:55:06.072Z,100856.12
2018-05-09T03:57:34.431Z,100847.27
2018-05-09T04:00:02.742Z,100850.53
2018-05-09T04:02:45.501Z,100848.55
2018-05-09T04:05:25.686Z,100845.29
2018-05-09T04:08:07.485Z,100843.80
2018-05-09T04:10:35.839Z,100850.53
2018-05-09T04:13:04.219Z,100852.16
2018-05-09T04:15:32.946Z,100853.01
2018-05-09T04:18:01.289Z,100853.28
2018-05-09T04:20:29.626Z,100855.65
2018-05-09T04:22:58.128Z,100858.04
2018-05-09T04:25:26.451Z,100857.28
2018-05-09T04:27:54.782Z,100853.73
2018-05-09T04:30:23.392Z,100856.06
2018-05-09T04:32:51.711Z,100861.05
2018-05-09T04:35:20.042Z,100861.26
2018-05-09T04:37:49.131Z,100864.01
2018-05-09T04:40:17.416Z,100864.21
2018-05-09T04:42:45.735Z,100862.25
2018-05-09T04:45:14.053Z,100859.69
2018-05-09T04:47:43.310Z,100854.08
2018-05-09T04:50:11.613Z,100860.01
2018-05-09T04:52:39.959Z,100848.66
2018-05-09T04:55:08.255Z,100853.83
2018-05-09T04:57:36.841Z,100855.38
2018-05-09T05:00:05.652Z,100852.73
2018-05-09T05:02:33.988Z,100853.95
2018-05-09T05:05:02.292Z,100864.23
2018-05-09T05:07:30.761Z,100863.80
2018-05-09T05:09:59.086Z,100853.42
2018-05-09T05:12:27.416Z,100860.92
2018-05-09T05:14:56.665Z,100852.84
2018-05-09T05:17:25.027Z,100865.64
2018-05-09T05:19:54.365Z,100870.09
2018-05-09T05:22:22.694Z,100866.81
2018-05-09T05:24:51.185Z,100866.51
2018-05-09T05:27:19.523Z,100869.36
2018-05-09T05:29:48.343Z,100874.80
2018-05-09T05:32:16.655Z,100866.31
2018-05-09T05:34:44.969Z,100868.20
2018-05-09T05:37:14.086Z,100869.34
2018-05-09T05:39:42.411Z,100865.49
2018-05-09T05:42:10.734Z,100860.29
2018-05-09T05:44:39.102Z,100868.13
2018-05-09T05:47:07.445Z,100864.45
2018-05-09T05:49:37.065Z,100870.95
2018-05-09T05:52:05.383Z,100866.21
2018-05-09T05:54:33.694Z,100864.14
2018-05-09T05:57:02.009Z,100866.27
2018-05-09T05:59:30.966Z,100862.23
2018-05-09T06:01:59.450Z,100862.41
2018-05-09T06:04:27.930Z,100863.50
2018-05-09T06:06:56.786Z,100862.15
2018-05-09T06:09:25.117Z,100857.09
2018-05-09T06:11:53.579Z,100864.37
2018-05-09T06:14:22.021Z,100865.22
2018-05-09T06:16:50.326Z,100864.48
2018-05-09T06:19:18.665Z,100864.76
2018-05-09T06:21:46.988Z,100856.12
2018-05-09T06:24:15.627Z,100856.64
2018-05-09T06:26:43.992Z,100854.43
2018-05-09T06:29:12.487Z,100856.53
2018-05-09T06:31:40.851Z,100852.41
2018-05-09T06:34:09.244Z,100866.14
2018-05-09T06:36:37.950Z,100861.70
2018-05-09T06:39:06.249Z,100865.53
2018-05-09T06:41:34.612Z,100872.05
2018-05-09T06:44:03.846Z,100873.63
2018-05-09T06:46:32.174Z,100872.38
2018-05-09T06:49:01.167Z,100871.75
2018-05-09T06:51:29.561Z,100876.08
2018-05-09T06:53:57.949Z,100871.67
2018-05-09T06:56:26.433Z,100865.06
2018-05-09T06:58:54.984Z,100861.56
2018-05-09T07:01:23.308Z,100861.89
2018-05-09T07:03:51.612Z,100860.80
2018-05-09T07:06:21.169Z,100863.91
2018-05-09T07:08:49.411Z,100868.30
2018-05-09T07:11:17.745Z,100866.73
2018-05-09T07:13:46.801Z,100869.98
2018-05-09T07:16:15.101Z,100867.53
2018-05-09T07:18:43.455Z,100872.30
2018-05-09T07:21:12.469Z,100865.31
2018-05-09T07:23:40.767Z,100875.77
2018-05-09T07:26:09.107Z,100871.09
2018-05-09T07:28:37.519Z,100866.58
2018-05-09T07:31:05.834Z,100865.45
2018-05-09T07:33:34.145Z,100860.89
2018-05-09T07:36:02.562Z,100861.28
2018-05-09T07:38:30.864Z,100862.88
2018-05-09T07:40:59.315Z,100864.79
2018-05-09T07:43:27.698Z,100868.86
2018-05-09T07:45:56.190Z,100876.14
2018-05-09T07:48:24.669Z,100872.53
2018-05-09T07:50:55.005Z,100869.58
2018-05-09T07:53:23.363Z,100872.13
2018-05-09T07:55:51.696Z,100857.11
2018-05-09T07:58:20.085Z,100865.56
2018-05-09T08:00:48.386Z,100859.84
2018-05-09T08:03:16.718Z,100859.92
2018-05-09T08:05:45.074Z,100861.48
2018-05-09T08:08:13.375Z,100857.50
2018-05-09T08:10:41.697Z,100864.28
2018-05-09T08:13:10.049Z,100861.23
2018-05-09T08:15:38.353Z,100858.53
2018-05-09T08:18:06.666Z,100857.91
2018-05-09T08:20:35.420Z,100862.30
2018-05-09T08:23:03.799Z,100863.66
2018-05-09T08:25:32.175Z,100861.03
2018-05-09T08:28:01.281Z,100860.13
2018-05-09T08:30:29.722Z,100855.13
2018-05-09T08:32:58.016Z,100847.94
2018-05-09T08:35:27.010Z,100852.83
2018-05-09T08:37:55.513Z,100854.42
2018-05-09T08:40:24.006Z,100848.53
2018-05-09T08:42:52.884Z,100846.98
2018-05-09T08:45:21.165Z,100854.79
2018-05-09T08:47:49.506Z,100849.70
2018-05-09T08:50:18.497Z,100840.48
2018-05-09T08:52:46.812Z,100840.45
2018-05-09T08:55:15.199Z,100844.03
2018-05-09T08:57:43.540Z,100837.70
2018-05-09T09:00:11.850Z,100839.67
2018-05-09T09:02:40.157Z,100839.02
2018-05-09T09:05:08.551Z,100843.14
2018-05-09T09:07:36.881Z,100842.66
2018-05-09T09:10:05.273Z,100838.52
2018-05-09T09:12:34.368Z,100832.34
2018-05-09T09:15:02.689Z,100836.55
2018-05-09T09:17:32.034Z,100840.54
2018-05-09T09:20:00.512Z,100844.22
2018-05-09T09:22:29.150Z,100840.34
2018-05-09T09:24:57.672Z,100841.50
2018-05-09T09:27:26.521Z,100840.63
2018-05-09T09:29:54.944Z,100845.68
2018-05-09T09:32:23.320Z,100842.59
2018-05-09T09:34:51.751Z,100839.05
2018-05-09T09:37:20.857Z,100829.44
2018-05-09T09:39:49.178Z,100826.92
2018-05-09T09:42:17.603Z,100831.59
2018-05-09T09:44:45.938Z,100824.34
2018-05-09T09:47:14.233Z,100825.03
2018-05-09T09:49:43.200Z,100823.84
2018-05-09T09:52:11.802Z,100825.96
2018-05-09T09:54:40.170Z,100819.90
2018-05-09T09:57:08.514Z,100816.69
2018-05-09T09:59:36.855Z,100816.84
2018-05-09T10:02:05.194Z,100812.08
2018-05-09T10:04:33.581Z,100814.19
2018-05-09T10:07:01.950Z,100811.05
2018-05-09T10:09:30.334Z,100799.27
2018-05-09T10:11:59.127Z,100802.28
2018-05-09T10:14:27.519Z,100810.89
2018-05-09T10:16:56.015Z,100802.64
2018-05-09T10:19:25.755Z,100799.44
2018-05-09T10:21:54.175Z,100803.23
2018-05-09T10:24:22.665Z,100800.58
2018-05-09T10:26:53.092Z,100798.97
2018-05-09T10:29:21.390Z,100796.75
2018-05-09T10:31:49.715Z,100797.51
2018-05-09T10:34:19.071Z,100803.70
2018-05-09T10:36:47.411Z,100793.67
2018-05-09T10:39:15.737Z,100790.52
2018-05-09T10:41:44.257Z,100789.16
2018-05-09T10:44:12.552Z,100797.50
2018-05-09T10:46:40.860Z,100792.50
2018-05-09T10:49:09.425Z,100793.75
2018-05-09T10:51:37.746Z,100798.27
2018-05-09T10:54:06.066Z,100794.13
2018-05-09T10:56:34.402Z,100793.88
2018-05-09T10:59:02.756Z,100790.47
2018-05-09T11:01:31.109Z,100785.06
2018-05-09T11:03:59.537Z,100779.61
2018-05-09T11:06:28.092Z,100777.52
2018-05-09T11:08:56.425Z,100775.84
2018-05-09T11:11:24.776Z,100787.98
2018-05-09T11:13:53.180Z,100789.81
2018-05-09T11:16:21.520Z,100786.94
2018-05-09T11:18:50.230Z,100786.65
2018-05-09T11:21:18.541Z,100784.00
2018-05-09T11:23:46.849Z,100781.11
2018-05-09T11:26:15.848Z,100781.58
2018-05-09T11:28:44.138Z,100793.41
2018-05-09T11:31:12.475Z,100794.41
2018-05-09T11:33:40.809Z,100789.56
2018-05-09T11:36:09.127Z,100779.77
2018-05-09T11:38:37.433Z,100786.81
2018-05-09T11:41:06.588Z,100779.80
2018-05-09T11:43:34.946Z,100775.25
2018-05-09T11:46:03.287Z,100777.29
2018-05-09T11:48:31.951Z,100781.20
2018-05-09T11:51:00.292Z,100779.55
2018-05-09T11:53:28.681Z,100771.94
2018-05-09T11:55:57.796Z,100777.40
2018-05-09T11:58:26.359Z,100762.94
2018-05-09T12:00:54.702Z,100759.10
2018-05-09T12:03:23.277Z,100759.53
2018-05-09T12:05:51.585Z,100757.70
2018-05-09T12:08:19.901Z,100755.00
2018-05-09T12:10:48.325Z,100750.95
2018-05-09T12:13:16.541Z,100747.26
2018-05-09T12:15:44.849Z,100747.45
2018-05-09T12:18:14.006Z,100752.45
2018-05-09T12:20:42.324Z,100756.05
2018-05-09T12:23:10.624Z,100744.81
2018-05-09T12:25:38.977Z,100748.33
2018-05-09T12:28:07.312Z,100750.58
2018-05-09T12:30:35.617Z,100744.05
2018-05-09T12:33:04.060Z,100745.42
2018-05-09T12:35:32.409Z,100745.98
2018-05-09T12:38:00.764Z,100737.56
2018-05-09T12:40:29.450Z,100736.02
2018-05-09T12:42:57.783Z,100730.78
2018-05-09T12:45:26.102Z,100722.85
2018-05-09T12:47:54.538Z,100727.09
2018-05-09T12:50:22.862Z,100719.76
2018-05-09T12:52:51.242Z,100719.98
2018-05-09T12:55:19.570Z,100720.44
2018-05-09T12:57:47.896Z,100723.81
2018-05-09T13:00:16.314Z,100711.14
2018-05-09T13:02:44.630Z,100713.45
2018-05-09T13:05:13.206Z,100714.33
2018-05-09T13:07:41.549Z,100714.04
2018-05-09T13:10:10.772Z,100719.81
2018-05-09T13:12:39.095Z,100710.53
2018-05-09T13:15:07.387Z,100708.48
2018-05-09T13:17:36.553Z,100707.47
2018-05-09T13:20:04.924Z,100699.70
2018-05-09T13:22:33.231Z,100693.91
2018-05-09T13:25:02.133Z,100700.31
2018-05-09T13:27:30.560Z,100694.88
2018-05-09T13:29:58.856Z,100694.81
2018-05-09T13:32:27.204Z,100691.10
2018-05-09T13:34:55.726Z,100685.23
2018-05-09T13:37:24.076Z,100685.48
2018-05-09T13:39:52.683Z,100680.70
2018-05-09T13:42:21.013Z,100681.23
2018-05-09T13:44:49.311Z,100688.14
2018-05-09T13:47:17.995Z,100674.34
2018-05-09T13:49:46.316Z,100665.86
2018-05-09T13:52:14.620Z,100670.61
2018-05-09T13:54:42.965Z,100670.75
2018-05-09T13:57:11.302Z,100659.50
2018-05-09T13:59:39.628Z,100661.28
2018-05-09T14:02:08.855Z,100668.87
2018-05-09T14:04:37.191Z,100665.58
2018-05-09T14:07:05.505Z,100663.19
2018-05-09T14:09:33.838Z,100666.69
2018-05-09T14:12:02.149Z,100669.20
2018-05-09T14:14:30.577Z,100666.05
2018-05-09T14:16:58.905Z,100654.06
2018-05-09T14:19:27.329Z,100662.06
2018-05-09T14:21:55.683Z,100661.76
2018-05-09T14:24:24.258Z,100652.25
2018-05-09T14:26:52.559Z,100651.22
2018-05-09T14:29:20.912Z,100650.66
2018-05-09T14:31:49.251Z,100648.90
2018-05-09T14:34:18.402Z,100649.78
2018-05-09T14:36:46.732Z,100639.63
2018-05-09T14:39:15.185Z,100641.41
2018-05-09T14:41:43.494Z,100643.69
2018-05-09T14:44:11.795Z,100638.81
2018-05-09T14:46:40.181Z,100638.08
2018-05-09T14:49:08.462Z,100640.59
2018-05-09T14:51:36.773Z,100634.94
2018-05-09T14:54:05.350Z,100631.98
2018-05-09T14:56:33.675Z,100629.81
2018-05-09T14:59:01.986Z,100627.62
2018-05-09T15:01:30.908Z,100628.73
2018-05-09T15:03:59.267Z,100628.20
2018-05-09T15:06:27.580Z,100629.89
2018-05-09T15:08:55.988Z,100617.37
2018-05-09T15:11:24.316Z,100613.97
2018-05-09T15:13:52.643Z,100614.66
2018-05-09T15:16:22.346Z,100618.28
2018-05-09T15:18:51.653Z,100610.08
2018-05-09T15:21:20.633Z,100612.97
2018-05-09T15:23:49.267Z,100606.98
2018-05-09T15:26:17.610Z,100606.87
2018-05-09T15:28:45.898Z,100606.97
2018-05-09T15:31:14.221Z,100609.61
2018-05-09T15:33:42.513Z,100608.13
2018-05-09T15:36:10.823Z,100612.33
2018-05-09T15:38:39.897Z,100603.95
2018-05-09T15:41:08.218Z,100612.21
2018-05-09T15:43:36.546Z,100606.58
2018-05-09T15:46:05.288Z,100604.21
2018-05-09T15:48:33.600Z,100601.33
2018-05-09T15:51:01.933Z,100599.42
2018-05-09T15:53:30.275Z,100596.36
2018-05-09T15:56:01.754Z,100599.83
2018-05-09T15:58:30.064Z,100593.19
2018-05-09T16:00:58.448Z,100603.13
2018-05-09T16:03:26.846Z,100602.31
2018-05-09T16:05:55.217Z,100595.55
2018-05-09T16:08:24.157Z,100596.25
2018-05-09T16:10:52.579Z,100590.83
2018-05-09T16:13:22.033Z,100588.84
2018-05-09T16:15:53.254Z,100588.03
2018-05-09T16:18:21.563Z,100593.55
2018-05-09T16:20:49.850Z,100594.62
2018-05-09T16:23:18.219Z,100597.08
2018-05-09T16:25:46.525Z,100594.11
2018-05-09T16:28:14.885Z,100589.67
2018-05-09T16:30:43.207Z,100595.74
2018-05-09T16:33:11.526Z,100588.77
2018-05-09T16:35:39.838Z,100588.67
2018-05-09T16:38:08.734Z,100584.15
2018-05-09T16:40:37.028Z,100584.68
2018-05-09T16:43:05.470Z,100587.45
2018-05-09T16:45:35.677Z,100577.98
2018-05-09T16:48:05.097Z,100579.63
2018-05-09T16:50:33.383Z,100572.70
2018-05-09T16:53:02.390Z,100579.27
2018-05-09T16:55:30.773Z,100576.19
2018-05-09T16:58:00.948Z,100574.39
2018-05-09T17:00:29.598Z,100578.17
2018-05-09T17:02:57.933Z,100579.95
2018-05-09T17:05:26.313Z,100579.39
2018-05-09T17:07:54.655Z,100574.55
2018-05-09T17:10:22.989Z,100584.12
2018-05-09T17:12:51.283Z,100576.73
2018-05-09T17:15:20.508Z,100574.20
2018-05-09T17:17:48.835Z,100576.56
2018-05-09T17:20:17.149Z,100577.95
2018-05-09T17:22:45.638Z,100576.69
2018-05-09T17:25:13.969Z,100575.33
2018-05-09T17:27:42.262Z,100576.69
2018-05-09T17:30:10.707Z,100577.73
2018-05-09T17:32:39.050Z,100580.36
2018-05-09T17:35:07.365Z,100575.62
2018-05-09T17:37:36.069Z,100580.22
2018-05-09T17:40:04.363Z,100574.13
2018-05-09T17:42:32.804Z,100574.14
2018-05-09T17:45:01.830Z,100575.64
2018-05-09T17:47:30.547Z,100569.42
2018-05-09T17:49:58.913Z,100569.30
2018-05-09T17:52:27.309Z,100571.27
2018-05-09T17:54:55.739Z,100575.58
2018-05-09T17:57:24.123Z,100566.05
2018-05-09T17:59:52.489Z,100554.80
2018-05-09T18:02:20.866Z,100560.94
2018-05-09T18:04:49.249Z,100559.03
2018-05-09T18:07:18.339Z,100560.14
2018-05-09T18:09:46.624Z,100556.75
2018-05-09T18:12:15.001Z,100560.32
2018-05-09T18:14:43.364Z,100561.06
2018-05-09T18:17:11.650Z,100564.80
2018-05-09T18:19:39.988Z,100568.80
2018-05-09T18:22:08.926Z,100565.98
2018-05-09T18:24:37.419Z,100557.38
2018-05-09T18:27:05.765Z,100568.84
2018-05-09T18:29:34.276Z,100555.95
2018-05-09T18:32:02.566Z,100562.66
2018-05-09T18:34:30.928Z,100566.99
2018-05-09T18:36:59.711Z,100564.25
2018-05-09T18:39:28.182Z,100559.11
2018-05-09T18:41:56.566Z,100556.41
2018-05-09T18:44:25.068Z,100561.14
2018-05-09T18:46:53.434Z,100559.69
2018-05-09T18:49:21.722Z,100560.27
2018-05-09T18:51:50.082Z,100563.69
2018-05-09T18:54:18.422Z,100572.30
2018-05-09T18:56:46.742Z,100573.55
2018-05-09T18:59:15.254Z,100574.11
2018-05-09T19:01:43.565Z,100576.26
2018-05-09T19:04:11.897Z,100567.17
2018-05-09T19:06:40.301Z,100567.01
2018-05-09T19:09:08.682Z,100567.70
2018-05-09T19:11:37.046Z,100570.39
2018-05-09T19:14:05.402Z,100572.47
2018-05-09T19:16:33.737Z,100572.82
2018-05-09T19:19:02.496Z,100578.32
2018-05-09T19:21:30.856Z,100580.13
2018-05-09T19:24:00.032Z,100582.08
2018-05-09T19:26:28.374Z,100586.84
2018-05-09T19:28:56.842Z,100587.95
2018-05-09T19:31:25.188Z,100587.98
2018-05-09T19:33:54.820Z,100583.38
2018-05-09T19:36:23.880Z,100582.03
2018-05-09T19:38:52.172Z,100594.73
2018-05-09T19:41:20.491Z,100584.98
2018-05-09T19:43:49.253Z,100585.19
2018-05-09T19:46:17.609Z,100582.48
2018-05-09T19:48:45.935Z,100583.41
2018-05-09T19:51:14.693Z,100579.12
2018-05-09T19:53:43.017Z,100588.48
2018-05-09T19:56:11.425Z,100583.34
2018-05-09T19:58:40.315Z,100576.08
2018-05-09T20:01:08.660Z,100580.89
2018-05-09T20:03:37.304Z,100584.78
2018-05-09T20:06:05.725Z,100584.04
2018-05-09T20:08:34.373Z,100583.51
2018-05-09T20:11:02.972Z,100581.63
2018-05-09T20:13:31.768Z,100578.58
2018-05-09T20:16:00.233Z,100581.88
2018-05-09T20:18:29.331Z,100579.59
2018-05-09T20:20:57.813Z,100576.80
2018-05-09T20:23:26.195Z,100579.69
2018-05-09T20:25:54.577Z,100578.48
2018-05-09T20:28:24.256Z,100578.41
2018-05-09T20:30:58.216Z,100575.84
2018-05-09T20:33:28.769Z,100580.84
2018-05-09T20:35:57.302Z,100576.78
2018-05-09T20:38:25.775Z,100576.16
2018-05-09T20:40:55.123Z,100578.80
2018-05-09T20:43:23.666Z,100583.30
2018-05-09T20:45:51.966Z,100577.81
2018-05-09T20:48:21.161Z,100575.05
2018-05-09T20:50:49.500Z,100579.61
2018-05-09T20:53:17.934Z,100579.41
2018-05-09T20:55:46.392Z,100578.06
2018-05-09T20:58:14.849Z,100577.35
2018-05-09T21:00:43.166Z,100574.65
2018-05-09T21:03:12.027Z,100576.93
2018-05-09T21:05:40.411Z,100575.63
2018-05-09T21:08:08.830Z,100580.36
2018-05-09T21:10:38.882Z,100574.61
2018-05-09T21:13:07.200Z,100571.41
2018-05-09T21:15:35.817Z,100572.84
2018-05-09T21:18:04.365Z,100569.22
2018-05-09T21:20:32.716Z,100564.72
2018-05-09T21:23:01.153Z,100569.05
2018-05-09T21:25:29.502Z,100566.72
2018-05-09T21:27:57.873Z,100565.41
2018-05-09T21:30:26.286Z,100559.96
2018-05-09T21:32:55.574Z,100570.14
2018-05-09T21:35:23.949Z,100567.44
2018-05-09T21:37:53.932Z,100570.09
2018-05-09T21:40:24.305Z,100569.59
2018-05-09T21:42:52.637Z,100569.50
2018-05-09T21:45:21.019Z,100566.00
2018-05-09T21:47:50.103Z,100563.38
2018-05-09T21:50:18.404Z,100563.72
2018-05-09T21:52:46.705Z,100563.80
2018-05-09T21:55:15.446Z,100566.08
2018-05-09T21:57:43.849Z,100559.02
2018-05-09T22:00:12.194Z,100557.38
2018-05-09T22:02:42.165Z,100555.52
2018-05-09T22:05:10.458Z,100553.27
2018-05-09T22:07:38.855Z,100554.40
2018-05-09T22:10:07.965Z,100553.63
2018-05-09T22:12:36.265Z,100550.75
2018-05-09T22:15:04.616Z,100546.07
2018-05-09T22:17:33.267Z,100539.19
2018-05-09T22:20:01.679Z,100538.89
2018-05-09T22:22:30.180Z,100538.30
2018-05-09T22:24:59.385Z,100536.11
2018-05-09T22:27:27.775Z,100533.62
2018-05-09T22:29:56.188Z,100531.72
2018-05-09T22:32:25.328Z,100526.05
2018-05-09T22:34:53.688Z,100526.24
2018-05-09T22:37:22.020Z,100530.38
2018-05-09T22:39:50.646Z,100528.09
2018-05-09T22:42:18.953Z,100523.03
2018-05-09T22:44:47.346Z,100521.84
2018-05-09T22:47:16.275Z,100522.52
2018-05-09T22:49:44.608Z,100516.67
2018-05-09T22:52:12.922Z,100511.98
2018-05-09T22:54:41.279Z,100509.55
2018-05-09T22:57:09.597Z,100504.80
2018-05-09T22:59:37.933Z,100499.92
2018-05-09T23:02:06.565Z,100499.67
2018-05-09T23:04:34.900Z,100483.12
2018-05-09T23:07:03.223Z,100483.21
2018-05-09T23:09:31.602Z,100480.31
2018-05-09T23:11:59.958Z,100476.67
2018-05-09T23:14:28.351Z,100472.16
2018-05-09T23:16:56.738Z,100470.03
2018-05-09T23:19:25.072Z,100473.30
2018-05-09T23:21:53.955Z,100477.13
2018-05-09T23:24:22.594Z,100473.72
2018-05-09T23:26:51.016Z,100469.41
2018-05-09T23:29:19.336Z,100461.47
2018-05-09T23:31:47.720Z,100463.67
2018-05-09T23:34:16.271Z,100466.08
2018-05-09T23:36:44.560Z,100457.71
2018-05-09T23:39:12.968Z,100456.16
2018-05-09T23:41:41.279Z,100450.62
2018-05-09T23:44:09.624Z,100450.23
2018-05-09T23:46:38.006Z,100448.47
2018-05-09T23:49:06.309Z,100446.77
2018-05-09T23:51:34.689Z,100448.29
2018-05-09T23:54:03.277Z,100447.70
2018-05-09T23:56:31.636Z,100443.73
2018-05-09T23:59:00.082Z,100446.31
